createdAt,value
2023-01-30T00:01:30.055Z,94683.00
2023-01-30T00:03:57.282Z,94675.00
2023-01-30T00:06:24.953Z,94668.00
2023-01-30T00:08:53.007Z,94661.00
2023-01-30T00:11:21.285Z,94661.00
2023-01-30T00:13:50.638Z,94658.00
2023-01-30T00:16:18.608Z,94656.00
2023-01-30T00:18:48.105Z,94650.00
2023-01-30T00:21:18.399Z,94643.00
2023-01-30T00:23:45.755Z,94636.00
2023-01-30T00:26:12.874Z,94636.00
2023-01-30T00:28:44.799Z,94635.00
2023-01-30T00:31:11.720Z,94624.00
2023-01-30T00:33:39.709Z,94610.00
2023-01-30T00:36:09.714Z,94603.00
2023-01-30T00:38:36.895Z,94593.00
2023-01-30T00:41:06.712Z,94588.00
2023-01-30T00:43:54.772Z,94595.00
2023-01-30T00:46:49.660Z,94597.00
2023-01-30T00:49:21.945Z,94610.00
2023-01-30T00:51:51.699Z,94616.00
2023-01-30T00:54:18.646Z,94612.00
2023-01-30T00:56:48.234Z,94623.00
2023-01-30T00:59:18.318Z,94597.00
2023-01-30T01:01:45.278Z,94604.00
2023-01-30T01:04:21.622Z,94594.00
2023-01-30T01:06:51.058Z,94578.00
2023-01-30T01:09:18.203Z,94576.00
2023-01-30T01:11:47.715Z,94567.00
2023-01-30T01:14:19.411Z,94563.00
2023-01-30T01:16:51.391Z,94562.00
2023-01-30T01:19:18.633Z,94562.00
2023-01-30T01:21:46.121Z,94563.00
2023-01-30T01:24:15.633Z,94573.00
2023-01-30T01:26:43.721Z,94571.00
2023-01-30T01:29:15.690Z,94560.00
2023-01-30T01:31:44.047Z,94565.00
2023-01-30T01:34:11.719Z,94545.00
2023-01-30T01:36:56.622Z,94541.00
2023-01-30T01:39:24.023Z,94557.00
2023-01-30T01:41:51.041Z,94556.00
2023-01-30T01:44:20.520Z,94572.00
2023-01-30T01:46:55.164Z,94576.00
2023-01-30T01:49:30.028Z,94565.00
2023-01-30T01:52:08.168Z,94567.00
2023-01-30T01:55:01.452Z,94589.00
2023-01-30T01:57:40.602Z,94587.00
2023-01-30T02:00:13.991Z,94588.00
2023-01-30T02:02:48.372Z,94591.00
2023-01-30T02:05:18.433Z,94582.00
2023-01-30T02:08:08.151Z,94585.00
2023-01-30T02:11:03.493Z,94593.00
2023-01-30T02:13:31.642Z,94606.00
2023-01-30T02:16:02.041Z,94620.00
2023-01-30T02:18:31.568Z,94626.00
2023-01-30T02:21:22.600Z,94626.00
2023-01-30T02:24:27.260Z,94640.00
2023-01-30T02:27:06.550Z,94656.00
2023-01-30T02:30:36.724Z,94637.00
2023-01-30T02:33:31.671Z,94640.00
2023-01-30T02:36:11.830Z,94640.00
2023-01-30T02:38:49.891Z,94639.00
2023-01-30T02:41:29.441Z,94625.00
2023-01-30T02:44:35.644Z,94615.00
2023-01-30T02:47:08.016Z,94626.00
2023-01-30T02:50:18.645Z,94633.00
2023-01-30T02:52:51.814Z,94603.00
2023-01-30T02:55:26.873Z,94611.00
2023-01-30T02:57:55.913Z,94623.00
2023-01-30T03:01:09.313Z,94612.00
2023-01-30T03:03:47.465Z,94603.00
2023-01-30T03:06:34.706Z,94602.00
2023-01-30T03:09:25.874Z,94597.00
2023-01-30T03:12:08.460Z,94598.00
2023-01-30T03:14:48.621Z,94602.00
2023-01-30T03:17:23.565Z,94592.00
2023-01-30T03:19:51.872Z,94590.00
2023-01-30T03:22:25.237Z,94606.00
2023-01-30T03:24:57.009Z,94602.00
2023-01-30T03:27:24.984Z,94624.00
2023-01-30T03:29:51.923Z,94627.00
2023-01-30T03:32:21.149Z,94634.00
2023-01-30T03:34:50.148Z,94590.00
2023-01-30T03:37:20.058Z,94562.00
2023-01-30T03:39:49.197Z,94589.00
2023-01-30T03:42:18.381Z,94619.00
2023-01-30T03:44:47.851Z,94627.00
2023-01-30T03:47:17.077Z,94625.00
2023-01-30T03:49:44.059Z,94616.00
2023-01-30T03:52:10.879Z,94616.00
2023-01-30T03:54:37.809Z,94626.00
2023-01-30T03:57:05.259Z,94612.00
2023-01-30T03:59:34.618Z,94613.00
2023-01-30T04:02:01.587Z,94608.00
2023-01-30T04:04:28.422Z,94602.00
2023-01-30T04:06:57.849Z,94606.00
2023-01-30T04:09:26.808Z,94597.00
2023-01-30T04:11:58.930Z,94592.00
2023-01-30T04:14:28.527Z,94586.00
2023-01-30T04:16:58.036Z,94580.00
2023-01-30T04:19:25.027Z,94575.00
2023-01-30T04:21:56.618Z,94572.00
2023-01-30T04:24:24.401Z,94575.00
2023-01-30T04:26:51.326Z,94585.00
2023-01-30T04:29:20.660Z,94576.00
2023-01-30T04:31:51.964Z,94589.00
2023-01-30T04:34:21.318Z,94573.00
2023-01-30T04:36:48.174Z,94583.00
2023-01-30T04:39:15.101Z,94597.00
2023-01-30T04:41:41.949Z,94606.00
2023-01-30T04:44:11.006Z,94602.00
2023-01-30T04:46:37.923Z,94603.00
2023-01-30T04:49:07.317Z,94582.00
2023-01-30T04:51:34.161Z,94582.00
2023-01-30T04:54:00.983Z,94562.00
2023-01-30T04:56:28.122Z,94568.00
2023-01-30T04:58:55.499Z,94573.00
2023-01-30T05:01:30.407Z,94582.00
2023-01-30T05:03:57.710Z,94588.00
2023-01-30T05:06:26.977Z,94582.00
2023-01-30T05:08:56.872Z,94571.00
2023-01-30T05:11:26.512Z,94587.00
2023-01-30T05:13:53.791Z,94593.00
2023-01-30T05:16:22.482Z,94599.00
2023-01-30T05:18:51.996Z,94590.00
2023-01-30T05:21:27.851Z,94589.00
2023-01-30T05:23:56.297Z,94580.00
2023-01-30T05:26:24.440Z,94591.00
2023-01-30T05:28:58.146Z,94587.00
2023-01-30T05:31:25.695Z,94595.00
2023-01-30T05:33:53.141Z,94598.00
2023-01-30T05:36:23.766Z,94577.00
2023-01-30T05:38:53.279Z,94556.00
2023-01-30T05:41:20.307Z,94573.00
2023-01-30T05:43:53.431Z,94556.00
2023-01-30T05:46:22.943Z,94538.00
2023-01-30T05:48:54.437Z,94547.00
2023-01-30T05:51:23.976Z,94548.00
2023-01-30T05:53:51.223Z,94547.00
2023-01-30T05:56:19.493Z,94571.00
2023-01-30T05:58:54.870Z,94576.00
2023-01-30T06:01:24.706Z,94573.00
2023-01-30T06:03:52.249Z,94586.00
2023-01-30T06:06:20.095Z,94584.00
2023-01-30T06:08:50.031Z,94593.00
2023-01-30T06:11:17.836Z,94586.00
2023-01-30T06:13:49.751Z,94571.00
2023-01-30T06:16:20.017Z,94569.00
2023-01-30T06:18:47.318Z,94582.00
2023-01-30T06:21:15.646Z,94586.00
2023-01-30T06:23:43.360Z,94574.00
2023-01-30T06:26:12.853Z,94582.00
2023-01-30T06:28:39.818Z,94597.00
2023-01-30T06:31:08.315Z,94596.00
2023-01-30T06:33:35.560Z,94618.00
2023-01-30T06:36:07.489Z,94605.00
2023-01-30T06:38:34.578Z,94608.00
2023-01-30T06:41:04.161Z,94608.00
2023-01-30T06:43:31.082Z,94601.00
2023-01-30T06:46:01.664Z,94607.00
2023-01-30T06:48:28.673Z,94612.00
2023-01-30T06:50:58.048Z,94616.00
2023-01-30T06:53:30.349Z,94623.00
2023-01-30T06:55:58.991Z,94608.00
2023-01-30T06:58:26.137Z,94602.00
2023-01-30T07:00:53.412Z,94605.00
2023-01-30T07:03:20.433Z,94603.00
2023-01-30T07:05:48.178Z,94596.00
2023-01-30T07:08:17.699Z,94602.00
2023-01-30T07:10:47.027Z,94608.00
2023-01-30T07:13:14.173Z,94596.00
2023-01-30T07:15:41.208Z,94603.00
2023-01-30T07:18:10.828Z,94597.00
2023-01-30T07:20:42.139Z,94600.00
2023-01-30T07:23:09.041Z,94605.00
2023-01-30T07:25:38.215Z,94596.00
2023-01-30T07:28:05.519Z,94589.00
2023-01-30T07:30:39.233Z,94577.00
2023-01-30T07:33:07.052Z,94570.00
2023-01-30T07:35:37.402Z,94554.00
2023-01-30T07:38:05.589Z,94550.00
2023-01-30T07:40:35.071Z,94565.00
2023-01-30T07:43:05.444Z,94564.00
2023-01-30T07:45:39.541Z,94559.00
2023-01-30T07:48:08.086Z,94566.00
2023-01-30T07:50:37.505Z,94576.00
2023-01-30T07:53:08.993Z,94580.00
2023-01-30T07:55:35.980Z,94585.00
2023-01-30T07:58:03.588Z,94585.00
2023-01-30T08:00:31.524Z,94602.00
2023-01-30T08:03:01.070Z,94589.00
2023-01-30T08:05:30.567Z,94589.00
2023-01-30T08:08:01.939Z,94582.00
2023-01-30T08:10:31.134Z,94587.00
2023-01-30T08:12:58.095Z,94595.00
2023-01-30T08:15:24.917Z,94599.00
2023-01-30T08:17:56.564Z,94599.00
2023-01-30T08:20:24.516Z,94597.00
2023-01-30T08:22:51.599Z,94590.00
2023-01-30T08:25:23.237Z,94595.00
2023-01-30T08:27:52.767Z,94611.00
2023-01-30T08:30:21.826Z,94590.00
2023-01-30T08:32:51.226Z,94582.00
2023-01-30T08:35:18.256Z,94577.00
2023-01-30T08:37:47.337Z,94589.00
2023-01-30T08:40:17.248Z,94575.00
2023-01-30T08:42:45.530Z,94583.00
2023-01-30T08:45:12.815Z,94589.00
2023-01-30T08:47:39.737Z,94599.00
2023-01-30T08:50:07.251Z,94621.00
2023-01-30T08:52:37.214Z,94617.00
2023-01-30T08:55:04.551Z,94613.00
2023-01-30T08:57:33.677Z,94615.00
2023-01-30T09:00:00.663Z,94617.00
2023-01-30T09:02:27.601Z,94618.00
2023-01-30T09:04:54.600Z,94619.00
2023-01-30T09:07:24.509Z,94610.00
2023-01-30T09:09:51.423Z,94608.00
2023-01-30T09:12:18.253Z,94617.00
2023-01-30T09:14:49.497Z,94606.00
2023-01-30T09:17:16.352Z,94624.00
2023-01-30T09:19:43.219Z,94619.00
2023-01-30T09:22:10.196Z,94623.00
2023-01-30T09:24:37.064Z,94632.00
2023-01-30T09:27:06.543Z,94628.00
2023-01-30T09:29:35.744Z,94634.00
2023-01-30T09:32:05.115Z,94616.00
2023-01-30T09:34:32.037Z,94613.00
2023-01-30T09:37:04.807Z,94609.00
2023-01-30T09:39:32.151Z,94606.00
2023-01-30T09:42:04.991Z,94605.00
2023-01-30T09:44:53.970Z,94602.00
2023-01-30T09:47:33.313Z,94601.00
2023-01-30T09:50:34.355Z,94609.00
2023-01-30T09:53:22.695Z,94609.00
2023-01-30T09:55:50.184Z,94601.00
2023-01-30T09:58:21.958Z,94589.00
2023-01-30T10:01:03.799Z,94593.00
2023-01-30T10:03:40.154Z,94584.00
2023-01-30T10:06:16.841Z,94600.00
2023-01-30T10:09:00.849Z,94595.00
2023-01-30T10:11:55.726Z,94597.00
2023-01-30T10:14:35.649Z,94606.00
2023-01-30T10:17:43.841Z,94606.00
2023-01-30T10:20:45.761Z,94609.00
2023-01-30T10:23:55.287Z,94615.00
2023-01-30T10:26:26.216Z,94603.00
2023-01-30T10:29:21.829Z,94591.00
2023-01-30T10:32:08.179Z,94572.00
2023-01-30T10:34:59.522Z,94553.00
2023-01-30T10:38:32.452Z,94515.00
2023-01-30T10:41:16.847Z,94514.00
2023-01-30T10:43:54.602Z,94515.00
2023-01-30T10:47:03.987Z,94520.00
2023-01-30T10:49:53.597Z,94517.00
2023-01-30T10:52:42.650Z,94529.00
2023-01-30T10:55:38.039Z,94521.00
2023-01-30T10:58:42.625Z,94517.00
2023-01-30T11:01:21.328Z,94513.00
2023-01-30T11:03:57.173Z,94492.00
2023-01-30T11:06:25.856Z,94501.00
2023-01-30T11:08:54.561Z,94497.00
2023-01-30T11:11:42.088Z,94500.00
2023-01-30T11:14:13.742Z,94492.00
2023-01-30T11:16:52.067Z,94498.00
2023-01-30T11:19:24.711Z,94494.00
2023-01-30T11:22:00.044Z,94502.00
2023-01-30T11:24:42.548Z,94487.00
2023-01-30T11:27:22.337Z,94482.00
2023-01-30T11:29:50.913Z,94481.00
2023-01-30T11:32:28.920Z,94499.00
2023-01-30T11:35:07.142Z,94490.00
2023-01-30T11:37:45.089Z,94494.00
2023-01-30T11:40:18.168Z,94494.00
2023-01-30T11:42:51.956Z,94492.00
2023-01-30T11:45:21.227Z,94485.00
2023-01-30T11:48:04.813Z,94489.00
2023-01-30T11:50:46.865Z,94495.00
2023-01-30T11:53:47.133Z,94482.00
2023-01-30T11:56:39.374Z,94475.00
2023-01-30T11:59:37.244Z,94475.00
2023-01-30T12:02:23.780Z,94466.00
2023-01-30T12:05:02.573Z,94473.00
2023-01-30T12:07:34.735Z,94479.00
2023-01-30T12:10:04.704Z,94469.00
2023-01-30T12:12:52.137Z,94465.00
2023-01-30T12:15:26.366Z,94475.00
2023-01-30T12:18:29.531Z,94490.00
2023-01-30T12:21:26.483Z,94484.00
2023-01-30T12:24:32.391Z,94476.00
2023-01-30T12:27:26.057Z,94469.00
2023-01-30T12:30:17.524Z,94459.00
2023-01-30T12:32:47.090Z,94457.00
2023-01-30T12:35:19.443Z,94459.00
2023-01-30T12:38:45.782Z,94446.00
2023-01-30T12:41:40.468Z,94456.00
2023-01-30T12:44:44.448Z,94444.00
2023-01-30T12:47:52.969Z,94438.00
2023-01-30T12:50:49.171Z,94436.00
2023-01-30T12:53:24.166Z,94429.00
2023-01-30T12:56:12.197Z,94435.00
2023-01-30T12:58:46.000Z,94441.00
2023-01-30T13:02:12.837Z,94442.00
2023-01-30T13:05:13.219Z,94436.00
2023-01-30T13:08:15.134Z,94425.00
2023-01-30T13:10:44.928Z,94419.00
2023-01-30T13:13:43.127Z,94407.00
2023-01-30T13:16:18.719Z,94407.00
2023-01-30T13:18:54.675Z,94418.00
2023-01-30T13:21:45.914Z,94399.00
2023-01-30T13:24:53.919Z,94407.00
2023-01-30T13:27:27.254Z,94393.00
2023-01-30T13:29:59.523Z,94391.00
2023-01-30T13:32:47.350Z,94399.00
2023-01-30T13:35:20.383Z,94393.00
2023-01-30T13:37:49.800Z,94397.00
2023-01-30T13:40:21.863Z,94392.00
2023-01-30T13:43:04.559Z,94408.00
2023-01-30T13:45:36.045Z,94400.00
2023-01-30T13:48:24.059Z,94416.00
2023-01-30T13:51:24.247Z,94404.00
2023-01-30T13:54:13.254Z,94402.00
2023-01-30T13:57:03.985Z,94423.00
2023-01-30T14:00:09.597Z,94412.00
2023-01-30T14:02:36.470Z,94420.00
2023-01-30T14:05:09.885Z,94411.00
2023-01-30T14:07:41.857Z,94419.00
2023-01-30T14:10:23.781Z,94417.00
2023-01-30T14:12:53.874Z,94416.00
2023-01-30T14:15:31.860Z,94403.00
2023-01-30T14:18:01.755Z,94411.00
2023-01-30T14:20:33.598Z,94420.00
2023-01-30T14:23:22.578Z,94436.00
2023-01-30T14:25:56.628Z,94438.00
2023-01-30T14:28:48.716Z,94439.00
2023-01-30T14:31:49.500Z,94449.00
2023-01-30T14:34:48.354Z,94447.00
2023-01-30T14:37:49.388Z,94450.00
2023-01-30T14:40:25.662Z,94454.00
2023-01-30T14:43:19.476Z,94459.00
2023-01-30T14:45:58.867Z,94458.00
2023-01-30T14:48:44.734Z,94467.00
2023-01-30T14:51:42.580Z,94467.00
2023-01-30T14:54:12.921Z,94475.00
2023-01-30T14:57:10.311Z,94472.00
2023-01-30T15:00:03.335Z,94476.00
2023-01-30T15:02:44.595Z,94487.00
2023-01-30T15:05:20.686Z,94497.00
2023-01-30T15:08:08.185Z,94511.00
2023-01-30T15:11:18.598Z,94521.00
2023-01-30T15:14:04.695Z,94517.00
2023-01-30T15:16:37.467Z,94524.00
2023-01-30T15:19:41.463Z,94524.00
2023-01-30T15:22:51.481Z,94525.00
2023-01-30T15:25:44.315Z,94524.00
2023-01-30T15:28:34.653Z,94531.00
2023-01-30T15:31:01.545Z,94537.00
2023-01-30T15:33:31.915Z,94539.00
2023-01-30T15:36:00.800Z,94549.00
2023-01-30T15:38:33.837Z,94550.00
2023-01-30T15:41:06.335Z,94536.00
2023-01-30T15:44:25.539Z,94544.00
2023-01-30T15:47:36.001Z,94546.00
2023-01-30T15:50:09.974Z,94550.00
2023-01-30T15:52:46.456Z,94564.00
2023-01-30T15:55:37.004Z,94564.00
2023-01-30T15:58:10.637Z,94577.00
2023-01-30T16:00:45.172Z,94572.00
2023-01-30T16:03:42.564Z,94571.00
2023-01-30T16:06:32.676Z,94573.00
2023-01-30T16:09:24.200Z,94586.00
2023-01-30T16:11:54.145Z,94595.00
2023-01-30T16:14:22.359Z,94600.00
2023-01-30T16:17:01.983Z,94607.00
2023-01-30T16:19:37.363Z,94612.00
2023-01-30T16:22:11.814Z,94615.00
2023-01-30T16:24:41.232Z,94617.00
2023-01-30T16:27:19.335Z,94624.00
2023-01-30T16:29:55.796Z,94637.00
2023-01-30T16:32:31.804Z,94643.00
2023-01-30T16:35:28.402Z,94650.00
2023-01-30T16:37:58.186Z,94654.00
2023-01-30T16:40:27.449Z,94656.00
2023-01-30T16:43:18.035Z,94666.00
2023-01-30T16:45:47.678Z,94666.00
2023-01-30T16:48:17.373Z,94666.00
2023-01-30T16:51:10.495Z,94679.00
2023-01-30T16:53:37.657Z,94691.00
2023-01-30T16:56:16.948Z,94700.00
2023-01-30T16:58:52.104Z,94709.00
2023-01-30T17:01:19.417Z,94711.00
2023-01-30T17:04:09.063Z,94710.00
2023-01-30T17:06:42.868Z,94718.00
2023-01-30T17:09:38.867Z,94718.00
2023-01-30T17:12:25.689Z,94721.00
2023-01-30T17:15:24.226Z,94723.00
2023-01-30T17:17:58.098Z,94720.00
2023-01-30T17:20:34.817Z,94723.00
2023-01-30T17:23:06.609Z,94720.00
2023-01-30T17:25:42.416Z,94732.00
2023-01-30T17:28:16.901Z,94717.00
2023-01-30T17:30:43.829Z,94710.00
2023-01-30T17:33:13.211Z,94729.00
2023-01-30T17:35:40.625Z,94731.00
2023-01-30T17:38:07.681Z,94727.00
2023-01-30T17:40:38.968Z,94727.00
2023-01-30T17:43:09.645Z,94730.00
2023-01-30T17:45:38.940Z,94732.00
2023-01-30T17:48:09.017Z,94735.00
2023-01-30T17:50:36.631Z,94735.00
2023-01-30T17:53:06.408Z,94745.00
2023-01-30T17:55:34.456Z,94747.00
2023-01-30T17:58:06.381Z,94756.00
2023-01-30T18:00:38.354Z,94764.00
2023-01-30T18:03:05.234Z,94762.00
2023-01-30T18:05:32.143Z,94768.00
2023-01-30T18:08:03.800Z,94754.00
2023-01-30T18:10:35.246Z,94757.00
2023-01-30T18:13:04.168Z,94755.00
2023-01-30T18:15:31.148Z,94757.00
2023-01-30T18:18:00.347Z,94750.00
2023-01-30T18:20:29.447Z,94748.00
2023-01-30T18:22:56.330Z,94742.00
2023-01-30T18:25:25.686Z,94749.00
2023-01-30T18:27:52.538Z,94753.00
2023-01-30T18:30:24.953Z,94758.00
2023-01-30T18:32:54.351Z,94756.00
2023-01-30T18:35:25.180Z,94775.00
2023-01-30T18:37:58.187Z,94766.00
2023-01-30T18:40:32.529Z,94771.00
2023-01-30T18:42:59.468Z,94759.00
2023-01-30T18:45:26.369Z,94753.00
2023-01-30T18:47:54.520Z,94748.00
2023-01-30T18:50:21.864Z,94754.00
2023-01-30T18:52:50.614Z,94757.00
2023-01-30T18:55:17.717Z,94762.00
2023-01-30T18:57:51.319Z,94765.00
2023-01-30T19:00:21.967Z,94768.00
2023-01-30T19:02:54.059Z,94775.00
2023-01-30T19:05:21.300Z,94780.00
2023-01-30T19:07:50.686Z,94780.00
2023-01-30T19:10:21.106Z,94793.00
2023-01-30T19:13:06.500Z,94793.00
2023-01-30T19:15:38.058Z,94798.00
2023-01-30T19:18:04.944Z,94797.00
2023-01-30T19:20:31.843Z,94799.00
2023-01-30T19:22:59.803Z,94808.00
2023-01-30T19:25:29.087Z,94798.00
2023-01-30T19:27:57.189Z,94816.00
2023-01-30T19:30:26.458Z,94803.00
2023-01-30T19:32:54.327Z,94817.00
2023-01-30T19:35:26.281Z,94807.00
2023-01-30T19:37:57.497Z,94819.00
2023-01-30T19:40:24.354Z,94823.00
2023-01-30T19:42:54.745Z,94814.00
2023-01-30T19:45:26.103Z,94826.00
2023-01-30T19:47:53.051Z,94827.00
2023-01-30T19:50:22.306Z,94837.00
2023-01-30T19:52:52.910Z,94832.00
2023-01-30T19:55:20.624Z,94827.00
2023-01-30T19:57:50.067Z,94817.00
2023-01-30T20:00:21.792Z,94823.00
2023-01-30T20:02:49.919Z,94825.00
2023-01-30T20:05:17.151Z,94831.00
2023-01-30T20:07:46.977Z,94840.00
2023-01-30T20:10:18.954Z,94834.00
2023-01-30T20:12:48.942Z,94847.00
2023-01-30T20:15:18.996Z,94851.00
2023-01-30T20:17:51.391Z,94862.00
2023-01-30T20:20:18.702Z,94844.00
2023-01-30T20:22:45.844Z,94870.00
2023-01-30T20:25:12.789Z,94856.00
2023-01-30T20:27:43.871Z,94868.00
2023-01-30T20:30:19.476Z,94861.00
2023-01-30T20:32:51.347Z,94877.00
2023-01-30T20:35:18.558Z,94878.00
2023-01-30T20:37:45.530Z,94884.00
2023-01-30T20:40:16.903Z,94889.00
2023-01-30T20:42:46.126Z,94897.00
2023-01-30T20:45:12.952Z,94906.00
2023-01-30T20:47:40.553Z,94908.00
2023-01-30T20:50:10.560Z,94906.00
2023-01-30T20:52:38.660Z,94902.00
2023-01-30T20:55:09.982Z,94899.00
2023-01-30T20:57:43.281Z,94907.00
2023-01-30T21:00:13.658Z,94908.00
2023-01-30T21:02:42.400Z,94907.00
2023-01-30T21:05:09.447Z,94906.00
2023-01-30T21:07:38.011Z,94903.00
2023-01-30T21:10:08.269Z,94915.00
2023-01-30T21:12:35.254Z,94912.00
2023-01-30T21:15:05.100Z,94922.00
2023-01-30T21:17:32.053Z,94921.00
2023-01-30T21:19:59.181Z,94923.00
2023-01-30T21:22:28.702Z,94922.00
2023-01-30T21:24:55.655Z,94922.00
2023-01-30T21:27:26.030Z,94927.00
2023-01-30T21:29:55.372Z,94931.00
2023-01-30T21:32:24.756Z,94926.00
2023-01-30T21:34:53.978Z,94933.00
2023-01-30T21:37:39.389Z,94939.00
2023-01-30T21:40:27.560Z,94935.00
2023-01-30T21:43:12.765Z,94938.00
2023-01-30T21:45:42.435Z,94946.00
2023-01-30T21:48:12.020Z,94942.00
2023-01-30T21:50:41.059Z,94951.00
2023-01-30T21:53:10.346Z,94948.00
2023-01-30T21:55:37.792Z,94955.00
2023-01-30T21:58:08.715Z,94951.00
2023-01-30T22:00:38.129Z,94951.00
2023-01-30T22:03:05.050Z,94946.00
2023-01-30T22:05:36.921Z,94939.00
2023-01-30T22:08:06.438Z,94935.00
2023-01-30T22:10:33.310Z,94934.00
2023-01-30T22:13:00.299Z,94937.00
2023-01-30T22:15:29.551Z,94936.00
2023-01-30T22:17:58.688Z,94936.00
2023-01-30T22:20:28.581Z,94945.00
2023-01-30T22:22:55.542Z,94949.00
2023-01-30T22:25:24.723Z,94958.00
2023-01-30T22:27:56.235Z,94961.00
2023-01-30T22:30:23.021Z,94961.00
2023-01-30T22:32:54.939Z,94951.00
2023-01-30T22:35:24.162Z,94947.00
2023-01-30T22:37:55.597Z,94955.00
2023-01-30T22:40:24.989Z,94958.00
2023-01-30T22:42:54.856Z,94953.00
2023-01-30T22:45:22.317Z,94941.00
2023-01-30T22:47:49.494Z,94959.00
2023-01-30T22:50:18.930Z,94959.00
2023-01-30T22:52:46.001Z,94957.00
2023-01-30T22:55:15.836Z,94962.00
2023-01-30T22:57:42.806Z,94961.00
2023-01-30T23:00:11.086Z,94971.00
2023-01-30T23:02:38.303Z,94962.00
2023-01-30T23:05:06.401Z,94968.00
2023-01-30T23:07:34.562Z,94966.00
2023-01-30T23:10:01.911Z,94960.00
2023-01-30T23:12:49.394Z,94957.00
2023-01-30T23:15:19.115Z,94955.00
2023-01-30T23:18:08.599Z,94950.00
2023-01-30T23:20:35.596Z,94950.00
2023-01-30T23:23:03.253Z,94951.00
2023-01-30T23:25:30.142Z,94950.00
2023-01-30T23:28:04.442Z,94953.00
2023-01-30T23:30:31.439Z,94955.00
2023-01-30T23:33:02.946Z,94942.00
2023-01-30T23:35:35.373Z,94956.00
2023-01-30T23:38:19.061Z,94942.00
2023-01-30T23:40:50.287Z,94945.00
2023-01-30T23:43:19.865Z,94942.00
2023-01-30T23:45:46.970Z,94941.00
2023-01-30T23:48:14.134Z,94939.00
2023-01-30T23:50:42.172Z,94930.00
2023-01-30T23:53:10.950Z,94931.00
2023-01-30T23:55:50.242Z,94932.00
2023-01-30T23:58:19.572Z,94930.00
